TAF Text Data
IDs:
Format:
Raw Decoded Include METAR

Data at: 1736 UTC 03 Jun 2020

Region: TOP
KATL 031726Z 0318/0424 28008KT P6SM BKN050 BKN250
  FM031900 25009KT P6SM VCSH BKN050 BKN250
  FM032300 24004KT P6SM FEW050 BKN250
  FM041500 22007KT P6SM SCT040 BKN250
  FM041800 21008KT P6SM VCSH BKN050 BKN250
  PROB30 0421/0424 5SM SHRA BKN040


KBOS 031723Z 0318/0424 13007KT P6SM FEW060 BKN250
  FM032000 26008KT P6SM VCSH OVC050
  FM032300 26007KT P6SM BKN070
  FM042100 16010G19KT P6SM SCT090


KBWI 031721Z 0318/0424 26013G20KT P6SM SCT200
  FM032300 28010G17KT P6SM BKN200
  FM040000 28010KT P6SM BKN200
  FM041500 25004KT P6SM BKN150


KCLE 031505Z 0315/0418 28014G24KT P6SM SCT050
  FM031900 29015G25KT P6SM BKN050
  FM032300 28004KT P6SM SCT080
  FM040300 18004KT P6SM BKN100


KCLT 031606Z 0316/0418 21007KT P6SM FEW120
  FM031800 23009G16KT P6SM FEW050 SCT250
  FM040200 22005KT P6SM FEW050


KCVG 031500Z 0315/0418 24012G20KT P6SM FEW035 SCT200
  FM032300 24010KT P6SM SCT040 BKN150
  FM040000 23007KT P6SM VCSH BKN040


KDCA 031721Z 0318/0424 25012G18KT P6SM SCT200
  FM040000 28010KT P6SM SCT200
  FM041400 25005KT P6SM SCT150
  FM041700 22006KT P6SM BKN150


KDEN 031506Z 0315/0418 28006KT P6SM FEW110 FEW220
  FM031600 33007KT P6SM FEW120 SCT220
  FM032100 02009KT P6SM FEW070 SCT120 BKN220
  FM040100 33012KT P6SM FEW070 BKN120
  FM040200 04008KT P6SM SCT120
  FM040600 21009KT P6SM FEW220


KDFW 031723Z 0318/0424 19009KT P6SM SCT060

KDTW 031735Z 0318/0424 28015G23KT P6SM FEW040 BKN200
  FM032300 32007KT P6SM SCT045
  FM040300 04007KT P6SM SKC
  FM041000 VRB03KT 6SM BR BKN250
  FM041800 17005KT P6SM BKN250


KEWR 031458Z 0315/0418 26011KT P6SM SCT040 BKN100
  FM031600 26013G21KT P6SM VCTS BKN035CB
  TEMPO 0317/0320 5SM -TSRA BKN030CB
  FM032200 27009KT P6SM VCSH SCT050 BKN100
  FM040400 27006KT P6SM SCT250
  FM041400 27006KT P6SM BKN100


TAF COR KFLL 031531Z 0315/0418 11006KT P6SM SHRA VCTS SCT020CB BKN050
  FM032000 13012KT P6SM SCT025 BKN060
  FM040200 11006KT P6SM SCT030 BKN060
  FM041300 13012KT P6SM VCTS SCT025CB BKN060


KIAD 031721Z 0318/0424 26012G18KT P6SM SCT200
  FM040000 28009KT P6SM BKN200
  FM041400 26004KT P6SM SCT200


KIAH 031733Z 0318/0424 07003KT P6SM VCSH SCT040 BKN250
  TEMPO 0319/0321 VRB15KT 6SM TSRA BKN035CB
  FM032300 12007KT P6SM SCT040 BKN250
  FM040200 14005KT P6SM FEW030 SCT250
  FM041200 15002KT P6SM FEW020 SCT150
  FM041600 19004KT P6SM SCT030
  FM042100 15007KT P6SM SCT040 SCT250


KJFK 031458Z 0315/0418 26012KT P6SM SCT040 BKN100
  FM031600 26014G24KT P6SM VCTS BKN040CB
  TEMPO 0317/0320 5SM -TSRA BKN030CB
  FM032300 27010KT P6SM VCSH SCT050 BKN100
  FM040400 27006KT P6SM SCT250
  FM041400 19006KT P6SM BKN100


KLAS 031723Z 0318/0424 VRB05KT P6SM SCT140 BKN200
  FM032100 17007KT P6SM SCT120 SCT200
  FM040200 21008KT P6SM FEW140
  FM041500 VRB05KT P6SM FEW140
  FM042100 18012G20KT P6SM FEW140


KLAX 031721Z 0318/0424 24007KT P6SM SCT150
  FM032000 27012KT P6SM SCT150
  FM040500 VRB03KT P6SM SCT150
  FM041000 VRB03KT 2SM BR OVC005
  FM041700 24007KT 6SM HZ SCT008
  FM041900 26012KT P6SM SCT150


KLGA 031458Z 0315/0418 26011KT P6SM SCT040 BKN100
  FM031600 26012G22KT P6SM VCTS BKN035CB
  TEMPO 0317/0320 5SM -TSRA BKN030CB
  FM032200 27010KT P6SM VCSH SCT050 BKN100
  FM040400 VRB05KT P6SM SCT250
  FM041500 VRB05KT P6SM BKN100


KMCO 031735Z 0318/0424 11013KT P6SM VCSH SCT025 BKN070 OVC250
  TEMPO 0318/0321 4SM SHRA BKN030 BKN060
  FM040000 13006KT P6SM VCSH SCT035 BKN060
  FM041400 15008KT P6SM VCSH BKN035
  FM041600 16009KT P6SM VCTS SCT030CB BKN060
  TEMPO 0417/0420 3SM TSRA BKN030CB OVC060


KMDW 031734Z 0318/0424 35008KT P6SM SCT060 BKN100
  FM032100 08008KT P6SM BKN100 BKN250
  FM040100 19005KT P6SM SCT250


KMEM 031720Z 0318/0424 22006KT P6SM SCT050 BKN120
  FM032300 20005KT P6SM VCTS SCT030CB SCT100
  FM040300 21005KT P6SM VCSH SCT040 BKN100
  FM041500 22008KT P6SM VCTS SCT040CB BKN100


KMIA 031531Z 0315/0418 02006KT P6SM SHRA VCTS SCT020CB BKN050
  FM031800 13012KT P6SM SCT025 SCT060
  FM040100 11005KT P6SM SCT025 BKN050
  FM041300 12010KT P6SM VCTS SCT025CB BKN045


KMSP 031720Z 0318/0424 32010KT P6SM FEW250
  FM041500 24006KT P6SM SCT150


KORD 031734Z 0318/0424 35007KT P6SM OVC100
  FM032100 08008KT P6SM BKN100 BKN250
  FM040100 VRB05KT P6SM SCT250
  TEMPO 0409/0412 4SM BR
  FM042000 09010KT P6SM FEW060 SCT250


KPDX 031730Z 0318/0418 32009KT P6SM BKN022 OVC200
  FM031830 32009KT P6SM SCT022 BKN200
  FM032200 31010KT P6SM FEW035 BKN250
  FM040800 32006KT P6SM SCT250
  FM041400 33006KT P6SM SCT018


KPHL 031726Z 0318/0424 26013G23KT P6SM -SHRA BKN050
  TEMPO 0322/0324 VRB20G30KT 3SM TSRA BKN040CB
  FM040100 28009KT P6SM BKN100
  FM041400 22006KT P6SM -SHRA BKN100
  FM042200 20006KT P6SM SHRA OVC060


KPHX 031508Z 0315/0418 10006KT P6SM FEW150
  FM031900 27008KT P6SM FEW150
  FM041000 09005KT P6SM SKC


KPIT 031735Z 0318/0424 26011G21KT P6SM VCTS BKN060CB
  FM032200 27010G23KT P6SM BKN060
  FM040100 29009KT P6SM BKN060
  FM041000 21004KT P6SM VCSH BKN025
  FM041600 21005KT P6SM VCSH BKN040


KSAN 031730Z 0318/0424 29010KT P6SM BKN200
  FM040200 VRB05KT P6SM FEW010 SCT200
  FM041000 VRB04KT P6SM BKN008
  FM041600 VRB04KT P6SM SCT010 SCT150
  FM041900 25010KT P6SM FEW010 SCT150


KSEA 031609Z 0316/0418 36008KT P6SM SCT008 BKN030
  TEMPO 0316/0319 BKN012 OVC020
  FM032000 28008KT P6SM SCT025 BKN040
  FM032100 30008KT P6SM SCT040 BKN100
  FM040100 35010KT P6SM SCT050 BKN150
  FM040600 02007KT P6SM SCT050 SCT250
  FM041200 19005KT P6SM BKN100


KSFO 031720Z 0318/0424 01007KT P6SM FEW200
  FM032100 30015G20KT P6SM FEW200
  FM040400 29008KT P6SM SKC
  FM041500 29006KT P6SM FEW015
  FM042100 29014KT P6SM SKC


KSLC 031732Z 0318/0424 14005KT P6SM SCT120
  FM031830 33009KT P6SM FEW120
  FM040000 36005KT P6SM FEW150
  FM040300 13005KT P6SM FEW120
  FM041900 33007KT P6SM FEW120


KSTL 031730Z 0318/0424 23010G16KT P6SM SCT060
  FM040200 23007KT P6SM VCTS BKN050CB
  FM040600 VRB05KT P6SM BKN100


KTPA 031503Z 0315/0418 07007KT P6SM VCSH SCT020 BKN080 OVC200
  FM031800 28007KT P6SM VCTS BKN030CB OVC060
  FM032100 34006KT 6SM SHRA VCTS BKN030CB OVC050
  FM040000 11005KT 6SM SHRA VCTS BKN025CB OVC040
  FM040900 13007KT 5SM SHRA VCTS BKN020CB OVC040